sensor_id;sensor_type;location;lat;lon;timestamp;pressure;altitude;pressure_sealevel;temperature;humidity
75166;BME280;63747;48.042;10.088;2022-10-16T00:01:41;95235.81;;;11.56;75.54
75166;BME280;63747;48.042;10.088;2022-10-16T00:04:42;95243.97;;;11.54;75.71
75166;BME280;63747;48.042;10.088;2022-10-16T00:07:43;95236.72;;;11.48;75.61
75166;BME280;63747;48.042;10.088;2022-10-16T00:10:44;95231.03;;;11.51;75.62
75166;BME280;63747;48.042;10.088;2022-10-16T00:13:47;95231.69;;;11.53;75.81
75166;BME280;63747;48.042;10.088;2022-10-16T00:16:48;95218.44;;;11.53;75.70
75166;BME280;63747;48.042;10.088;2022-10-16T00:19:49;95224.44;;;11.47;75.84
75166;BME280;63747;48.042;10.088;2022-10-16T00:22:49;95233.69;;;11.51;75.90
75166;BME280;63747;48.042;10.088;2022-10-16T00:25:58;95238.84;;;11.53;75.86
75166;BME280;63747;48.042;10.088;2022-10-16T00:29:06;95236.34;;;11.51;75.84
75166;BME280;63747;48.042;10.088;2022-10-16T00:32:06;95236.53;;;11.50;75.79
75166;BME280;63747;48.042;10.088;2022-10-16T00:35:08;95240.81;;;11.51;75.88
75166;BME280;63747;48.042;10.088;2022-10-16T00:38:09;95238.84;;;11.53;76.02
75166;BME280;63747;48.042;10.088;2022-10-16T00:41:17;95247.63;;;11.53;76.08
75166;BME280;63747;48.042;10.088;2022-10-16T00:44:50;95241.13;;;11.56;76.20
75166;BME280;63747;48.042;10.088;2022-10-16T00:47:56;95224.75;;;11.52;75.95
75166;BME280;63747;48.042;10.088;2022-10-16T00:50:57;95228.75;;;11.48;75.69
75166;BME280;63747;48.042;10.088;2022-10-16T00:53:59;95232.59;;;11.46;75.85
75166;BME280;63747;48.042;10.088;2022-10-16T00:57:04;95228.44;;;11.43;76.17
75166;BME280;63747;48.042;10.088;2022-10-16T01:00:08;95228.00;;;11.39;76.17
75166;BME280;63747;48.042;10.088;2022-10-16T01:03:30;95229.81;;;11.39;76.54
75166;BME280;63747;48.042;10.088;2022-10-16T01:16:41;95242.16;;;11.32;76.31
75166;BME280;63747;48.042;10.088;2022-10-16T01:23:31;95242.31;;;11.30;76.80
75166;BME280;63747;48.042;10.088;2022-10-16T01:27:08;95239.84;;;11.29;76.78
75166;BME280;63747;48.042;10.088;2022-10-16T01:30:15;95233.69;;;11.28;76.66
75166;BME280;63747;48.042;10.088;2022-10-16T01:33:24;95235.53;;;11.28;76.80
75166;BME280;63747;48.042;10.088;2022-10-16T01:36:55;95240.47;;;11.31;76.68
75166;BME280;63747;48.042;10.088;2022-10-16T01:39:58;95236.00;;;11.31;76.89
75166;BME280;63747;48.042;10.088;2022-10-16T01:43:10;95236.84;;;11.32;76.72
75166;BME280;63747;48.042;10.088;2022-10-16T01:46:14;95240.47;;;11.31;76.67
75166;BME280;63747;48.042;10.088;2022-10-16T01:49:17;95235.34;;;11.29;76.80
75166;BME280;63747;48.042;10.088;2022-10-16T01:52:23;95239.66;;;11.30;77.02
75166;BME280;63747;48.042;10.088;2022-10-16T01:55:29;95229.88;;;11.31;77.01
75166;BME280;63747;48.042;10.088;2022-10-16T01:58:36;95230.88;;;11.30;77.01
75166;BME280;63747;48.042;10.088;2022-10-16T02:01:49;95238.19;;;11.28;76.84
75166;BME280;63747;48.042;10.088;2022-10-16T02:05:16;95239.00;;;11.28;76.93
75166;BME280;63747;48.042;10.088;2022-10-16T02:08:22;95237.56;;;11.26;76.92
75166;BME280;63747;48.042;10.088;2022-10-16T02:11:24;95234.41;;;11.22;76.98
75166;BME280;63747;48.042;10.088;2022-10-16T02:14:26;95246.84;;;11.22;77.31
75166;BME280;63747;48.042;10.088;2022-10-16T02:17:27;95244.84;;;11.24;77.08
75166;BME280;63747;48.042;10.088;2022-10-16T02:20:37;95239.53;;;11.24;77.11
75166;BME280;63747;48.042;10.088;2022-10-16T02:30:54;95245.91;;;11.14;77.19
75166;BME280;63747;48.042;10.088;2022-10-16T02:33:58;95249.19;;;11.16;77.15
75166;BME280;63747;48.042;10.088;2022-10-16T02:37:01;95247.84;;;11.21;77.04
75166;BME280;63747;48.042;10.088;2022-10-16T02:40:04;95255.00;;;11.20;76.93
75166;BME280;63747;48.042;10.088;2022-10-16T02:43:06;95251.97;;;11.23;77.15
75166;BME280;63747;48.042;10.088;2022-10-16T02:46:07;95248.63;;;11.29;77.08
75166;BME280;63747;48.042;10.088;2022-10-16T02:49:08;95253.94;;;11.29;76.87
75166;BME280;63747;48.042;10.088;2022-10-16T02:52:08;95253.94;;;11.29;76.92
75166;BME280;63747;48.042;10.088;2022-10-16T02:55:16;95252.28;;;11.28;76.91
75166;BME280;63747;48.042;10.088;2022-10-16T02:58:17;95240.84;;;11.28;76.84
75166;BME280;63747;48.042;10.088;2022-10-16T03:01:18;95248.69;;;11.21;77.01
75166;BME280;63747;48.042;10.088;2022-10-16T03:04:19;95242.88;;;11.18;77.17
75166;BME280;63747;48.042;10.088;2022-10-16T03:07:19;95262.13;;;11.20;76.85
75166;BME280;63747;48.042;10.088;2022-10-16T03:10:20;95258.81;;;11.18;76.91
75166;BME280;63747;48.042;10.088;2022-10-16T03:13:21;95255.81;;;11.21;76.84
75166;BME280;63747;48.042;10.088;2022-10-16T03:16:21;95251.66;;;11.18;76.76
75166;BME280;63747;48.042;10.088;2022-10-16T03:19:22;95265.94;;;11.17;76.89
75166;BME280;63747;48.042;10.088;2022-10-16T03:22:23;95257.84;;;11.19;76.89
75166;BME280;63747;48.042;10.088;2022-10-16T03:25:24;95244.59;;;11.10;76.92
75166;BME280;63747;48.042;10.088;2022-10-16T03:28:25;95251.22;;;11.14;77.14
75166;BME280;63747;48.042;10.088;2022-10-16T03:31:26;95249.19;;;11.16;76.88
75166;BME280;63747;48.042;10.088;2022-10-16T03:34:26;95244.25;;;11.13;76.84
75166;BME280;63747;48.042;10.088;2022-10-16T03:37:29;95241.78;;;11.12;77.09
75166;BME280;63747;48.042;10.088;2022-10-16T03:40:29;95243.94;;;11.08;76.97
75166;BME280;63747;48.042;10.088;2022-10-16T03:43:32;95241.47;;;11.07;76.92
75166;BME280;63747;48.042;10.088;2022-10-16T03:46:32;95244.97;;;11.07;76.83
75166;BME280;63747;48.042;10.088;2022-10-16T03:49:33;95239.84;;;11.06;76.85
75166;BME280;63747;48.042;10.088;2022-10-16T03:52:42;95241.66;;;11.05;77.05
75166;BME280;63747;48.042;10.088;2022-10-16T03:55:43;95243.13;;;11.08;76.88
75166;BME280;63747;48.042;10.088;2022-10-16T03:58:44;95237.66;;;11.09;76.77
75166;BME280;63747;48.042;10.088;2022-10-16T04:01:45;95248.25;;;11.09;76.84
75166;BME280;63747;48.042;10.088;2022-10-16T04:04:45;95243.94;;;11.08;76.79
75166;BME280;63747;48.042;10.088;2022-10-16T04:07:46;95247.63;;;11.07;76.77
75166;BME280;63747;48.042;10.088;2022-10-16T04:10:47;95235.22;;;11.00;76.84
75166;BME280;63747;48.042;10.088;2022-10-16T04:14:09;95256.75;;;11.05;77.02
75166;BME280;63747;48.042;10.088;2022-10-16T04:17:10;95263.72;;;11.06;77.10
75166;BME280;63747;48.042;10.088;2022-10-16T04:20:12;95269.47;;;11.09;77.02
75166;BME280;63747;48.042;10.088;2022-10-16T04:23:12;95270.66;;;11.07;76.88
75166;BME280;63747;48.042;10.088;2022-10-16T04:26:13;95275.16;;;11.06;76.91
75166;BME280;63747;48.042;10.088;2022-10-16T04:29:17;95276.78;;;11.07;76.92
75166;BME280;63747;48.042;10.088;2022-10-16T04:32:18;95280.28;;;11.08;76.79
75166;BME280;63747;48.042;10.088;2022-10-16T04:35:19;95285.38;;;11.09;77.01
75166;BME280;63747;48.042;10.088;2022-10-16T04:38:20;95286.41;;;11.08;77.00
75166;BME280;63747;48.042;10.088;2022-10-16T04:41:21;95295.66;;;11.12;77.00
75166;BME280;63747;48.042;10.088;2022-10-16T04:44:22;95296.31;;;11.14;76.91
75166;BME280;63747;48.042;10.088;2022-10-16T04:47:23;95295.31;;;11.15;76.97
75166;BME280;63747;48.042;10.088;2022-10-16T04:50:23;95295.66;;;11.12;76.89
75166;BME280;63747;48.042;10.088;2022-10-16T04:53:24;95294.19;;;11.10;76.98
75166;BME280;63747;48.042;10.088;2022-10-16T04:56:25;95291.88;;;11.07;76.85
75166;BME280;63747;48.042;10.088;2022-10-16T04:59:26;95296.69;;;11.03;76.96
75166;BME280;63747;48.042;10.088;2022-10-16T05:02:26;95301.53;;;11.00;77.02
75166;BME280;63747;48.042;10.088;2022-10-16T05:05:29;95299.41;;;10.95;77.19
75166;BME280;63747;48.042;10.088;2022-10-16T05:08:30;95300.59;;;10.93;77.12
75166;BME280;63747;48.042;10.088;2022-10-16T05:11:31;95296.44;;;10.90;77.09
75166;BME280;63747;48.042;10.088;2022-10-16T05:14:52;95304.56;;;10.88;77.17
75166;BME280;63747;48.042;10.088;2022-10-16T05:17:53;95296.47;;;10.82;76.91
75166;BME280;63747;48.042;10.088;2022-10-16T05:20:54;95294.19;;;10.79;77.12
75166;BME280;63747;48.042;10.088;2022-10-16T05:23:55;95299.81;;;10.76;76.96
75166;BME280;63747;48.042;10.088;2022-10-16T05:27:06;95304.09;;;10.77;76.92
75166;BME280;63747;48.042;10.088;2022-10-16T05:30:07;95302.81;;;10.73;76.91
75166;BME280;63747;48.042;10.088;2022-10-16T05:37:16;95296.50;;;10.74;77.04
75166;BME280;63747;48.042;10.088;2022-10-16T05:40:21;95300.81;;;10.75;76.88
75166;BME280;63747;48.042;10.088;2022-10-16T05:43:22;95310.78;;;10.73;76.84
75166;BME280;63747;48.042;10.088;2022-10-16T05:46:23;95313.44;;;10.73;76.93
75166;BME280;63747;48.042;10.088;2022-10-16T05:49:24;95306.13;;;10.75;77.24
75166;BME280;63747;48.042;10.088;2022-10-16T05:52:24;95309.41;;;10.69;77.20
75166;BME280;63747;48.042;10.088;2022-10-16T05:55:25;95321.38;;;10.73;77.33
75166;BME280;63747;48.042;10.088;2022-10-16T05:58:29;95333.28;;;10.77;77.19
75166;BME280;63747;48.042;10.088;2022-10-16T06:01:30;95325.31;;;10.77;77.42
75166;BME280;63747;48.042;10.088;2022-10-16T06:04:33;95323.16;;;10.80;77.47
75166;BME280;63747;48.042;10.088;2022-10-16T06:07:35;95310.94;;;10.71;77.26
75166;BME280;63747;48.042;10.088;2022-10-16T06:10:38;95325.50;;;10.75;77.37
75166;BME280;63747;48.042;10.088;2022-10-16T06:13:39;95323.50;;;10.77;77.39
75166;BME280;63747;48.042;10.088;2022-10-16T06:16:50;95328.78;;;10.77;77.63
75166;BME280;63747;48.042;10.088;2022-10-16T06:19:53;95332.59;;;10.83;77.61
75166;BME280;63747;48.042;10.088;2022-10-16T06:22:54;95341.88;;;10.87;77.46
75166;BME280;63747;48.042;10.088;2022-10-16T06:26:13;95340.19;;;10.94;77.32
75166;BME280;63747;48.042;10.088;2022-10-16T06:29:14;95350.09;;;11.00;77.22
75166;BME280;63747;48.042;10.088;2022-10-16T06:32:15;95360.69;;;11.08;77.12
75166;BME280;63747;48.042;10.088;2022-10-16T06:35:16;95353.38;;;11.10;77.09
75166;BME280;63747;48.042;10.088;2022-10-16T06:38:16;95359.34;;;11.12;76.85
75166;BME280;63747;48.042;10.088;2022-10-16T06:41:19;95364.78;;;11.19;76.84
75166;BME280;63747;48.042;10.088;2022-10-16T06:44:23;95356.66;;;11.21;76.81
75166;BME280;63747;48.042;10.088;2022-10-16T06:47:24;95362.59;;;11.23;77.07
75166;BME280;63747;48.042;10.088;2022-10-16T06:50:25;95370.03;;;11.27;76.79
75166;BME280;63747;48.042;10.088;2022-10-16T06:53:28;95371.81;;;11.35;76.73
75166;BME280;63747;48.042;10.088;2022-10-16T06:56:30;95380.38;;;11.45;76.50
75166;BME280;63747;48.042;10.088;2022-10-16T06:59:43;95385.00;;;11.51;76.59
75166;BME280;63747;48.042;10.088;2022-10-16T07:02:44;95385.94;;;11.58;76.48
75166;BME280;63747;48.042;10.088;2022-10-16T07:05:45;95397.53;;;11.65;76.47
75166;BME280;63747;48.042;10.088;2022-10-16T07:08:46;95398.50;;;11.73;76.45
75166;BME280;63747;48.042;10.088;2022-10-16T07:11:48;95393.00;;;11.74;76.38
75166;BME280;63747;48.042;10.088;2022-10-16T07:14:49;95397.06;;;11.85;76.17
75166;BME280;63747;48.042;10.088;2022-10-16T07:17:52;95399.00;;;11.99;75.76
75166;BME280;63747;48.042;10.088;2022-10-16T07:20:53;95407.69;;;12.16;75.83
75166;BME280;63747;48.042;10.088;2022-10-16T07:23:58;95411.84;;;12.33;75.50
75166;BME280;63747;48.042;10.088;2022-10-16T07:26:59;95414.91;;;12.45;75.14
75166;BME280;63747;48.042;10.088;2022-10-16T07:30:00;95417.34;;;12.55;74.88
75166;BME280;63747;48.042;10.088;2022-10-16T07:33:01;95414.41;;;12.64;74.81
75166;BME280;63747;48.042;10.088;2022-10-16T07:36:02;95423.88;;;12.82;74.58
75166;BME280;63747;48.042;10.088;2022-10-16T07:39:03;95431.63;;;13.36;74.31
75166;BME280;63747;48.042;10.088;2022-10-16T07:42:04;95432.16;;;13.82;73.37
75166;BME280;63747;48.042;10.088;2022-10-16T07:45:05;95426.06;;;14.03;72.62
75166;BME280;63747;48.042;10.088;2022-10-16T07:48:06;95433.59;;;13.99;72.84
75166;BME280;63747;48.042;10.088;2022-10-16T07:51:07;95432.28;;;14.10;72.35
75166;BME280;63747;48.042;10.088;2022-10-16T07:54:11;95419.13;;;14.23;71.79
75166;BME280;63747;48.042;10.088;2022-10-16T08:01:13;95422.00;;;14.50;71.81
75166;BME280;63747;48.042;10.088;2022-10-16T08:04:15;95424.81;;;14.91;71.01
75166;BME280;63747;48.042;10.088;2022-10-16T08:07:16;95431.63;;;15.28;70.48
75166;BME280;63747;48.042;10.088;2022-10-16T08:10:32;95443.38;;;15.75;69.45
75166;BME280;63747;48.042;10.088;2022-10-16T08:13:33;95444.00;;;15.84;69.29
75166;BME280;63747;48.042;10.088;2022-10-16T08:16:34;95440.53;;;15.83;68.94
75166;BME280;63747;48.042;10.088;2022-10-16T08:19:34;95444.16;;;15.69;68.98
75166;BME280;63747;48.042;10.088;2022-10-16T08:22:35;95439.84;;;15.68;69.07
75166;BME280;63747;48.042;10.088;2022-10-16T08:26:06;95461.06;;;15.76;68.82
75166;BME280;63747;48.042;10.088;2022-10-16T08:29:09;95463.97;;;15.81;69.17
75166;BME280;63747;48.042;10.088;2022-10-16T08:32:17;95469.13;;;15.89;68.50
75166;BME280;63747;48.042;10.088;2022-10-16T08:35:18;95472.41;;;15.91;68.71
75166;BME280;63747;48.042;10.088;2022-10-16T08:38:19;95476.59;;;16.00;68.60
75166;BME280;63747;48.042;10.088;2022-10-16T08:47:56;95484.50;;;16.28;67.88
75166;BME280;63747;48.042;10.088;2022-10-16T08:51:03;95484.75;;;16.40;67.29
75166;BME280;63747;48.042;10.088;2022-10-16T08:54:21;95492.59;;;16.48;67.07
75166;BME280;63747;48.042;10.088;2022-10-16T08:57:25;95492.97;;;16.52;67.05
75166;BME280;63747;48.042;10.088;2022-10-16T09:00:37;95503.94;;;16.64;67.01
75166;BME280;63747;48.042;10.088;2022-10-16T09:06:57;95501.28;;;16.83;66.17
75166;BME280;63747;48.042;10.088;2022-10-16T09:10:21;95514.06;;;16.95;66.12
75166;BME280;63747;48.042;10.088;2022-10-16T09:13:43;95520.03;;;17.03;66.26
75166;BME280;63747;48.042;10.088;2022-10-16T09:23:37;95524.50;;;17.76;65.79
75166;BME280;63747;48.042;10.088;2022-10-16T09:26:38;95526.31;;;18.02;63.92
75166;BME280;63747;48.042;10.088;2022-10-16T09:29:45;95524.47;;;17.95;63.79
75166;BME280;63747;48.042;10.088;2022-10-16T09:32:51;95532.06;;;18.12;63.12
75166;BME280;63747;48.042;10.088;2022-10-16T09:35:59;95533.66;;;18.26;61.95
75166;BME280;63747;48.042;10.088;2022-10-16T09:39:09;95537.34;;;18.32;61.10
75166;BME280;63747;48.042;10.088;2022-10-16T09:42:17;95530.31;;;18.37;60.32
75166;BME280;63747;48.042;10.088;2022-10-16T09:45:26;95536.66;;;18.43;59.32
75166;BME280;63747;48.042;10.088;2022-10-16T09:48:39;95537.13;;;18.33;57.78
75166;BME280;63747;48.042;10.088;2022-10-16T09:52:18;95542.28;;;18.28;57.97
75166;BME280;63747;48.042;10.088;2022-10-16T09:55:19;95537.88;;;18.47;58.49
75166;BME280;63747;48.042;10.088;2022-10-16T09:58:26;95544.41;;;18.64;58.18
75166;BME280;63747;48.042;10.088;2022-10-16T10:04:50;95548.84;;;18.84;56.77
75166;BME280;63747;48.042;10.088;2022-10-16T10:08:14;95537.03;;;18.91;56.90
75166;BME280;63747;48.042;10.088;2022-10-16T10:11:42;95536.03;;;19.11;57.67
75166;BME280;63747;48.042;10.088;2022-10-16T10:14:52;95540.25;;;19.32;56.52
75166;BME280;63747;48.042;10.088;2022-10-16T10:21:39;95547.06;;;19.77;57.12
75166;BME280;63747;48.042;10.088;2022-10-16T10:24:41;95540.97;;;20.07;56.08
75166;BME280;63747;48.042;10.088;2022-10-16T10:37:59;95537.50;;;21.15;54.35
75166;BME280;63747;48.042;10.088;2022-10-16T10:41:23;95542.00;;;21.44;53.15
75166;BME280;63747;48.042;10.088;2022-10-16T10:45:11;95532.63;;;21.82;52.74
75166;BME280;63747;48.042;10.088;2022-10-16T10:48:49;95540.72;;;21.82;51.02
75166;BME280;63747;48.042;10.088;2022-10-16T10:55:45;95543.28;;;21.54;51.70
75166;BME280;63747;48.042;10.088;2022-10-16T10:59:15;95536.13;;;21.59;51.27
75166;BME280;63747;48.042;10.088;2022-10-16T11:02:40;95529.34;;;21.68;50.83
75166;BME280;63747;48.042;10.088;2022-10-16T11:05:45;95519.59;;;21.67;50.77
75166;BME280;63747;48.042;10.088;2022-10-16T11:09:00;95524.31;;;21.84;49.99
75166;BME280;63747;48.042;10.088;2022-10-16T11:15:33;95521.31;;;22.09;50.73
75166;BME280;63747;48.042;10.088;2022-10-16T11:18:49;95511.94;;;22.63;48.57
75166;BME280;63747;48.042;10.088;2022-10-16T11:25:13;95516.78;;;23.23;46.49
75166;BME280;63747;48.042;10.088;2022-10-16T11:28:19;95513.66;;;23.15;45.44
75166;BME280;63747;48.042;10.088;2022-10-16T11:31:40;95503.50;;;23.55;45.58
75166;BME280;63747;48.042;10.088;2022-10-16T11:34:57;95506.00;;;23.96;45.32
75166;BME280;63747;48.042;10.088;2022-10-16T11:38:02;95504.38;;;24.16;45.82
75166;BME280;63747;48.042;10.088;2022-10-16T11:41:22;95498.72;;;24.40;44.68
75166;BME280;63747;48.042;10.088;2022-10-16T11:50:55;95492.03;;;24.69;43.95
75166;BME280;63747;48.042;10.088;2022-10-16T11:57:24;95480.66;;;24.73;43.30
75166;BME280;63747;48.042;10.088;2022-10-16T12:00:33;95473.31;;;24.95;43.31
75166;BME280;63747;48.042;10.088;2022-10-16T12:04:15;95483.34;;;25.21;41.65
75166;BME280;63747;48.042;10.088;2022-10-16T12:07:14;95471.94;;;25.24;40.88
75166;BME280;63747;48.042;10.088;2022-10-16T12:10:23;95476.34;;;25.31;40.50
75166;BME280;63747;48.042;10.088;2022-10-16T12:13:38;95471.28;;;25.44;41.66
75166;BME280;63747;48.042;10.088;2022-10-16T12:17:04;95474.09;;;25.60;40.43
75166;BME280;63747;48.042;10.088;2022-10-16T12:20:32;95471.97;;;25.62;40.11
75166;BME280;63747;48.042;10.088;2022-10-16T12:23:52;95469.56;;;25.70;42.96
75166;BME280;63747;48.042;10.088;2022-10-16T12:27:06;95467.56;;;25.56;38.88
75166;BME280;63747;48.042;10.088;2022-10-16T12:30:21;95467.34;;;25.62;38.77
75166;BME280;63747;48.042;10.088;2022-10-16T12:33:35;95468.50;;;25.76;38.82
75166;BME280;63747;48.042;10.088;2022-10-16T12:36:38;95471.50;;;25.75;38.31
75166;BME280;63747;48.042;10.088;2022-10-16T12:39:39;95467.97;;;25.79;37.46
75166;BME280;63747;48.042;10.088;2022-10-16T12:42:51;95474.44;;;25.68;38.07
75166;BME280;63747;48.042;10.088;2022-10-16T12:49:37;95472.84;;;25.77;37.85
75166;BME280;63747;48.042;10.088;2022-10-16T12:52:39;95471.34;;;25.92;37.86
75166;BME280;63747;48.042;10.088;2022-10-16T12:59:32;95474.94;;;25.65;38.01
75166;BME280;63747;48.042;10.088;2022-10-16T13:14:14;95475.69;;;25.93;37.38
75166;BME280;63747;48.042;10.088;2022-10-16T13:20:11;95487.69;;;26.02;38.24
75166;BME280;63747;48.042;10.088;2022-10-16T13:23:23;95478.19;;;26.04;36.01
75166;BME280;63747;48.042;10.088;2022-10-16T13:26:37;95477.53;;;25.82;35.66
75166;BME280;63747;48.042;10.088;2022-10-16T13:29:45;95475.56;;;25.77;36.42
75166;BME280;63747;48.042;10.088;2022-10-16T13:33:24;95473.94;;;25.76;36.92
75166;BME280;63747;48.042;10.088;2022-10-16T13:36:43;95472.47;;;25.96;36.15
75166;BME280;63747;48.042;10.088;2022-10-16T13:47:49;95479.06;;;26.20;35.66
75166;BME280;63747;48.042;10.088;2022-10-16T13:58:44;95483.19;;;25.11;35.58
75166;BME280;63747;48.042;10.088;2022-10-16T14:02:14;95479.06;;;25.31;36.40
75166;BME280;63747;48.042;10.088;2022-10-16T14:05:49;95487.91;;;25.53;35.48
75166;BME280;63747;48.042;10.088;2022-10-16T14:12:06;95490.53;;;24.84;34.47
75166;BME280;63747;48.042;10.088;2022-10-16T14:15:22;95498.53;;;24.68;36.39
75166;BME280;63747;48.042;10.088;2022-10-16T14:18:25;95480.78;;;24.83;35.00
75166;BME280;63747;48.042;10.088;2022-10-16T14:21:40;95487.00;;;24.83;36.27
75166;BME280;63747;48.042;10.088;2022-10-16T14:24:57;95485.50;;;24.97;37.02
75166;BME280;63747;48.042;10.088;2022-10-16T14:28:18;95490.38;;;24.95;37.78
75166;BME280;63747;48.042;10.088;2022-10-16T14:31:27;95484.56;;;24.82;38.00
75166;BME280;63747;48.042;10.088;2022-10-16T14:34:53;95487.94;;;24.67;37.82
75166;BME280;63747;48.042;10.088;2022-10-16T14:37:55;95484.84;;;24.58;37.97
75166;BME280;63747;48.042;10.088;2022-10-16T14:40:58;95481.31;;;24.36;38.99
75166;BME280;63747;48.042;10.088;2022-10-16T14:44:12;95486.94;;;24.29;38.52
75166;BME280;63747;48.042;10.088;2022-10-16T14:47:18;95483.94;;;24.26;37.85
75166;BME280;63747;48.042;10.088;2022-10-16T14:50:24;95474.91;;;24.20;37.99
75166;BME280;63747;48.042;10.088;2022-10-16T14:53:26;95476.47;;;24.16;38.74
75166;BME280;63747;48.042;10.088;2022-10-16T14:56:31;95481.78;;;23.89;39.41
75166;BME280;63747;48.042;10.088;2022-10-16T14:59:45;95479.66;;;23.91;40.34
75166;BME280;63747;48.042;10.088;2022-10-16T15:02:47;95475.91;;;23.92;39.36
75166;BME280;63747;48.042;10.088;2022-10-16T15:05:49;95480.41;;;23.86;39.48
75166;BME280;63747;48.042;10.088;2022-10-16T15:08:51;95476.44;;;23.72;40.66
75166;BME280;63747;48.042;10.088;2022-10-16T15:11:52;95485.53;;;23.66;41.29
75166;BME280;63747;48.042;10.088;2022-10-16T15:14:54;95481.94;;;23.60;42.04
75166;BME280;63747;48.042;10.088;2022-10-16T15:17:56;95466.44;;;23.56;42.67
75166;BME280;63747;48.042;10.088;2022-10-16T15:20:57;95473.34;;;23.47;42.76
75166;BME280;63747;48.042;10.088;2022-10-16T15:23:59;95476.66;;;23.32;42.84
75166;BME280;63747;48.042;10.088;2022-10-16T15:27:00;95475.06;;;23.19;43.47
75166;BME280;63747;48.042;10.088;2022-10-16T15:30:02;95479.63;;;23.02;44.43
75166;BME280;63747;48.042;10.088;2022-10-16T15:33:04;95476.66;;;22.87;44.63
75166;BME280;63747;48.042;10.088;2022-10-16T15:36:06;95483.28;;;22.79;44.90
75166;BME280;63747;48.042;10.088;2022-10-16T15:39:15;95478.19;;;22.66;45.62
75166;BME280;63747;48.042;10.088;2022-10-16T15:42:16;95473.44;;;22.44;46.90
75166;BME280;63747;48.042;10.088;2022-10-16T15:45:17;95480.88;;;22.37;47.59
75166;BME280;63747;48.042;10.088;2022-10-16T15:48:22;95482.16;;;22.35;47.61
75166;BME280;63747;48.042;10.088;2022-10-16T15:51:24;95484.66;;;22.24;47.52
75166;BME280;63747;48.042;10.088;2022-10-16T15:54:27;95481.88;;;22.08;47.63
75166;BME280;63747;48.042;10.088;2022-10-16T15:57:31;95490.25;;;21.94;47.57
75166;BME280;63747;48.042;10.088;2022-10-16T16:00:32;95492.75;;;21.84;48.40
75166;BME280;63747;48.042;10.088;2022-10-16T16:03:33;95488.75;;;21.75;48.31
75166;BME280;63747;48.042;10.088;2022-10-16T16:10:32;95496.72;;;21.35;48.54
75166;BME280;63747;48.042;10.088;2022-10-16T16:13:33;95490.31;;;21.06;49.54
75166;BME280;63747;48.042;10.088;2022-10-16T16:16:34;95486.22;;;21.03;49.81
75166;BME280;63747;48.042;10.088;2022-10-16T16:23:34;95499.66;;;20.91;50.02
75166;BME280;63747;48.042;10.088;2022-10-16T16:26:36;95500.00;;;20.83;49.97
75166;BME280;63747;48.042;10.088;2022-10-16T16:29:40;95503.28;;;20.74;50.30
75166;BME280;63747;48.042;10.088;2022-10-16T16:32:41;95505.44;;;20.65;50.79
75166;BME280;63747;48.042;10.088;2022-10-16T16:35:42;95505.03;;;20.50;50.76
75166;BME280;63747;48.042;10.088;2022-10-16T16:38:44;95510.16;;;20.40;51.47
75166;BME280;63747;48.042;10.088;2022-10-16T16:41:44;95517.19;;;20.22;51.82
75166;BME280;63747;48.042;10.088;2022-10-16T16:48:43;95523.91;;;19.51;54.00
75166;BME280;63747;48.042;10.088;2022-10-16T16:55:41;95538.44;;;19.25;54.72
75166;BME280;63747;48.042;10.088;2022-10-16T16:58:45;95548.41;;;19.18;54.84
75166;BME280;63747;48.042;10.088;2022-10-16T17:05:43;95554.28;;;18.70;56.10
75166;BME280;63747;48.042;10.088;2022-10-16T17:12:52;95576.28;;;18.47;56.54
75166;BME280;63747;48.042;10.088;2022-10-16T17:15:52;95572.47;;;18.24;56.22
75166;BME280;63747;48.042;10.088;2022-10-16T17:22:50;95580.38;;;17.92;57.49
75166;BME280;63747;48.042;10.088;2022-10-16T17:29:29;95588.25;;;17.67;57.67
75166;BME280;63747;48.042;10.088;2022-10-16T17:32:30;95597.34;;;17.46;57.69
75166;BME280;63747;48.042;10.088;2022-10-16T17:38:39;95605.56;;;17.18;59.04
75166;BME280;63747;48.042;10.088;2022-10-16T17:45:06;95608.41;;;17.03;59.11
75166;BME280;63747;48.042;10.088;2022-10-16T17:48:06;95612.13;;;17.02;59.07
75166;BME280;63747;48.042;10.088;2022-10-16T17:55:04;95617.16;;;16.64;59.99
75166;BME280;63747;48.042;10.088;2022-10-16T17:58:05;95624.94;;;16.52;60.08
75166;BME280;63747;48.042;10.088;2022-10-16T18:01:17;95626.00;;;16.58;60.22
75166;BME280;63747;48.042;10.088;2022-10-16T18:08:14;95630.50;;;16.51;60.47
75166;BME280;63747;48.042;10.088;2022-10-16T18:15:12;95629.31;;;16.19;60.90
75166;BME280;63747;48.042;10.088;2022-10-16T18:22:09;95635.75;;;15.96;61.00
75166;BME280;63747;48.042;10.088;2022-10-16T18:25:10;95639.03;;;15.98;60.82
75166;BME280;63747;48.042;10.088;2022-10-16T18:28:11;95643.16;;;15.94;60.83
75166;BME280;63747;48.042;10.088;2022-10-16T18:31:14;95647.44;;;15.89;60.60
75166;BME280;63747;48.042;10.088;2022-10-16T18:38:12;95664.09;;;15.63;61.08
75166;BME280;63747;48.042;10.088;2022-10-16T18:45:09;95660.69;;;15.47;60.90
75166;BME280;63747;48.042;10.088;2022-10-16T18:48:10;95654.81;;;15.37;61.15
75166;BME280;63747;48.042;10.088;2022-10-16T18:54:11;95656.28;;;15.18;61.07
75166;BME280;63747;48.042;10.088;2022-10-16T19:01:13;95668.63;;;14.98;61.24
75166;BME280;63747;48.042;10.088;2022-10-16T19:08:13;95661.56;;;14.76;61.62
75166;BME280;63747;48.042;10.088;2022-10-16T19:15:10;95672.66;;;14.58;62.04
75166;BME280;63747;48.042;10.088;2022-10-16T19:22:08;95685.66;;;14.31;62.76
75166;BME280;63747;48.042;10.088;2022-10-16T19:29:23;95676.16;;;14.14;63.05
75166;BME280;63747;48.042;10.088;2022-10-16T19:32:23;95678.00;;;14.13;62.86
75166;BME280;63747;48.042;10.088;2022-10-16T19:39:21;95675.69;;;13.96;63.42
75166;BME280;63747;48.042;10.088;2022-10-16T19:42:24;95682.59;;;13.90;63.48
75166;BME280;63747;48.042;10.088;2022-10-16T19:45:25;95684.34;;;13.83;63.63